Time;durP1;ratioP1;P1;durP2;ratioP2;P2;SDS_P1;SDS_P2;PMS_P1;PMS_P2;Temp;Humidity;BMP_temperature;BMP_pressure;BME280_temperature;BME280_humidity;BME280_pressure;Samples;Min_cycle;Max_cycle;Signal;HPM_P1;HPM_P2
2023/05/17 07:01:17;;;;;;;0.80;0.80;;;23.30;99.90;27.40;102604.00;;;;6340373;22;20193;-70
2023/05/17 07:03:43;;;;;;;1.40;1.30;;;24.00;99.90;28.30;102583.00;;;;6313537;22;20247;-69
2023/05/17 07:06:15;;;;;;;1.08;0.82;;;24.40;99.90;25.70;102631.00;;;;6312893;22;20496;-69
2023/05/17 07:08:41;;;;;;;0.15;0.15;;;23.30;99.90;24.40;102660.00;;;;6313033;22;20171;-69
2023/05/17 07:11:07;;;;;;;0.75;0.75;;;22.20;99.90;23.40;102669.00;;;;6313189;22;20143;-70
2023/05/17 07:13:33;;;;;;;0.43;0.43;;;20.50;99.90;24.10;102669.00;;;;6287132;22;20155;-70
2023/05/17 07:16:03;;;;;;;0.68;0.25;;;20.70;99.90;26.60;102587.00;;;;6313085;22;20163;-69
2023/05/17 07:18:32;;;;;;;4.03;0.35;;;22.00;99.90;26.40;102577.00;;;;6287098;22;20156;-70
2023/05/17 07:20:58;;;;;;;0.68;0.68;;;22.70;99.90;22.40;102696.00;;;;6313350;22;20215;-69
2023/05/17 07:24:36;;;;;;;0.20;0.20;;;20.90;99.90;22.90;102709.00;;;;6287336;22;20226;-69
2023/05/17 07:27:41;;;;;;;0.20;0.20;;;19.30;99.90;25.10;102669.00;;;;6340886;22;20205;-69
2023/05/17 07:30:31;;;;;;;0.95;0.90;;;21.50;99.90;24.30;102676.00;;;;6313074;22;20238;-70
2023/05/17 07:33:07;;;;;;;1.15;0.82;;;21.60;99.90;24.10;102612.00;;;;6339500;22;20171;-70
2023/05/17 07:35:42;;;;;;;0.25;0.25;;;21.70;99.90;22.50;102690.00;;;;6287087;22;20230;-70
2023/05/17 07:38:30;;;;;;;0.20;0.20;;;20.70;99.90;23.30;102685.00;;;;6340212;22;20164;-70
2023/05/17 07:41:08;;;;;;;0.10;0.10;;;20.10;99.90;22.10;102713.00;;;;6312945;22;20191;-69
2023/05/17 07:43:51;;;;;;;3.45;1.42;;;19.50;99.90;20.00;102746.00;;;;6288726;22;20178;-69
2023/05/17 07:46:29;;;;;;;1.70;0.93;;;18.80;99.90;21.20;102725.00;;;;6312574;22;20192;-77
2023/05/17 07:48:55;;;;;;;0.40;0.40;;;18.80;99.90;23.50;102697.00;;;;6310945;22;20143;-73
2023/05/17 07:52:01;;;;;;;0.77;0.57;;;19.80;99.90;20.40;102674.00;;;;6312646;22;20136;-72
2023/05/17 07:54:44;;;;;;;0.10;0.10;;;19.00;99.90;23.80;102692.00;;;;6340445;22;20192;-72
2023/05/17 07:57:27;;;;;;;0.20;0.20;;;19.90;99.90;21.20;102723.00;;;;6339946;22;20139;-72
2023/05/17 08:00:11;;;;;;;0.80;0.80;;;19.00;99.90;20.50;102738.00;;;;6281334;22;20627;-72
2023/05/17 08:02:57;;;;;;;1.77;0.93;;;18.40;99.90;22.90;102708.00;;;;6307260;22;20168;-72
2023/05/17 08:05:40;;;;;;;0.10;0.10;;;19.30;99.90;23.40;102698.00;;;;6308619;22;20174;-72
2023/05/17 08:08:06;;;;;;;0.25;0.25;;;20.20;99.90;23.40;102686.00;;;;6307686;22;20144;-72
2023/05/17 08:10:53;;;;;;;0.20;0.20;;;20.30;99.90;22.10;102712.00;;;;6306969;22;20485;-72
2023/05/17 08:13:19;;;;;;;0.65;0.65;;;19.10;99.90;20.60;102735.00;;;;6307319;22;20209;-72
2023/05/17 08:16:08;;;;;;;0.40;0.40;;;18.60;99.90;22.50;102700.00;;;;6306837;22;20144;-72
2023/05/17 08:18:42;;;;;;;2.80;1.00;;;19.10;99.90;20.30;102746.00;;;;6306791;22;20149;-72
2023/05/17 08:21:32;;;;;;;2.47;0.60;;;18.80;99.90;20.70;102747.00;;;;6280354;22;20215;-72
2023/05/17 08:24:01;;;;;;;0.63;0.63;;;18.50;99.90;21.60;102727.00;;;;6307507;22;20141;-73
2023/05/17 08:26:29;;;;;;;2.63;0.98;;;18.70;99.90;22.80;102700.00;;;;6308629;22;20572;-72
2023/05/17 08:29:00;;;;;;;8.48;1.17;;;19.30;99.90;23.40;102685.00;;;;6307605;22;20144;-73
2023/05/17 08:31:48;;;;;;;0.30;0.30;;;19.90;99.90;23.50;102621.00;;;;6306955;22;20453;-72
2023/05/17 08:34:14;;;;;;;0.82;0.82;;;20.10;99.90;21.80;102647.00;;;;6307216;22;20151;-72
2023/05/17 08:36:43;;;;;;;0.10;0.10;;;19.40;99.90;22.60;102677.00;;;;6308164;22;20141;-72
2023/05/17 08:39:09;;;;;;;0.55;0.55;;;19.60;99.90;23.20;102689.00;;;;6308648;22;20140;-72
2023/05/17 08:41:45;;;;;;;2.45;0.95;;;20.00;99.90;22.70;102692.00;;;;6306570;22;20141;-72
2023/05/17 08:44:12;;;;;;;3.00;0.50;;;20.50;99.90;22.50;102695.00;;;;6281257;22;20163;-72
2023/05/17 08:47:01;;;;;;;0.85;0.80;;;19.90;99.90;21.40;102718.00;;;;6307713;22;20159;-72
2023/05/17 08:49:32;;;;;;;0.40;0.40;;;19.50;99.90;22.10;102699.00;;;;6306740;22;20144;-72
2023/05/17 08:52:08;;;;;;;1.05;1.05;;;19.50;99.90;20.90;102709.00;;;;6306035;22;20209;-72
2023/05/17 08:54:43;;;;;;;0.15;0.15;;;18.70;99.90;21.80;102722.00;;;;6307839;22;20136;-73
2023/05/17 08:57:13;;;;;;;0.80;0.80;;;19.10;99.90;22.40;102706.00;;;;6306874;22;20144;-73
2023/05/17 08:59:49;;;;;;;0.20;0.20;;;19.40;99.90;23.10;102635.00;;;;6280727;22;20182;-73
2023/05/17 09:02:15;;;;;;;0.75;0.70;;;19.80;99.90;21.40;102710.00;;;;6279319;22;20172;-72
2023/05/17 09:04:41;;;;;;;0.17;0.17;;;19.30;99.90;22.40;102714.00;;;;6281256;22;20144;-72
2023/05/17 09:07:15;;;;;;;0.20;0.20;;;19.40;99.90;20.30;102743.00;;;;6281263;22;20137;-72
2023/05/17 09:10:18;;;;;;;1.05;1.02;;;18.30;99.90;21.40;102733.00;;;;6254389;22;20227;-72
2023/05/17 09:12:47;;;;;;;1.45;0.45;;;18.80;99.90;22.10;102712.00;;;;6255339;22;20156;-73
2023/05/17 09:15:22;;;;;;;0.20;0.20;;;19.10;99.90;23.30;102660.00;;;;6280338;22;20206;-73
2023/05/17 09:17:53;;;;;;;0.45;0.45;;;19.40;99.90;22.00;102717.00;;;;6281241;22;20140;-73
2023/05/17 09:20:33;;;;;;;1.85;1.15;;;20.10;99.90;21.50;102727.00;;;;6280617;22;20164;-73
2023/05/17 09:23:01;;;;;;;1.98;0.70;;;19.30;99.90;21.00;102734.00;;;;6282223;22;20171;-73
2023/05/17 09:25:28;;;;;;;0.73;0.73;;;19.00;99.90;21.00;102752.00;;;;6308330;22;20156;-71
2023/05/17 09:28:11;;;;;;;0.17;0.17;;;18.80;99.90;20.10;102746.00;;;;6255334;22;20230;-71
2023/05/17 09:30:42;;;;;;;8.88;3.40;;;18.50;99.90;22.40;102714.00;;;;6255154;22;20159;-73
2023/05/17 09:33:10;;;;;;;0.65;0.65;;;19.10;99.90;20.90;102717.00;;;;6255200;22;20588;-72
2023/05/17 09:35:37;;;;;;;1.40;0.77;;;18.80;99.90;21.50;102732.00;;;;6255091;22;20557;-69
2023/05/17 09:38:24;;;;;;;1.73;0.40;;;19.20;99.90;23.40;102690.00;;;;6281147;22;20470;-69
2023/05/17 09:40:50;;;;;;;0.20;0.20;;;19.80;99.90;21.80;102721.00;;;;6258300;22;20167;-69
2023/05/17 09:43:24;;;;;;;3.28;0.80;;;19.60;99.90;23.30;102634.00;;;;6280351;22;20168;-69
2023/05/17 09:46:19;;;;;;;4.65;1.88;;;20.20;99.90;23.80;102699.00;;;;6255121;22;20153;-69
2023/05/17 09:49:01;;;;;;;1.08;1.08;;;20.80;99.90;22.80;102711.00;;;;6303502;22;20166;-68
2023/05/17 09:51:44;;;;;;;1.48;1.00;;;20.40;99.90;21.90;102672.00;;;;6280541;22;20534;-70
2023/05/17 09:54:11;;;;;;;2.95;0.68;;;20.00;99.90;23.10;102710.00;;;;6281128;22;20145;-71
2023/05/17 09:56:37;;;;;;;0.50;0.50;;;20.30;99.90;22.70;102649.00;;;;6280326;22;20141;-70
2023/05/17 09:59:15;;;;;;;1.73;0.38;;;20.20;99.90;22.00;102716.00;;;;6280434;22;20306;-68
2023/05/17 10:01:46;;;;;;;2.42;0.95;;;19.60;99.90;23.10;102712.00;;;;6305445;22;20163;-69
2023/05/17 10:04:22;;;;;;;0.10;0.10;;;19.80;99.90;23.30;102704.00;;;;6306565;22;20163;-69
2023/05/17 10:07:08;;;;;;;1.55;0.50;;;20.00;99.90;22.80;102708.00;;;;6280870;22;20156;-69
2023/05/17 10:09:36;;;;;;;0.10;0.10;;;20.40;99.90;22.50;102717.00;;;;6257524;22;20165;-69
2023/05/17 10:12:10;;;;;;;0.20;0.20;;;20.10;99.90;24.50;102629.00;;;;6280728;22;20152;-69
2023/05/17 10:14:37;;;;;;;3.72;0.55;;;20.90;99.90;23.60;102700.00;;;;6280504;22;20179;-69
2023/05/17 10:17:12;;;;;;;1.35;0.40;;;21.10;99.90;23.60;102686.00;;;;6306337;22;20144;-69
2023/05/17 10:19:39;;;;;;;0.88;0.88;;;20.60;99.90;23.60;102693.00;;;;6280624;22;20160;-69
2023/05/17 10:33:21;;;;;;;0.52;0.52;;;19.30;99.90;24.10;102694.00;;;;5070231;28;20558;-68
2023/05/17 10:35:50;;;;;;;0.75;0.75;;;20.50;99.90;24.00;102688.00;;;;5049442;28;20636;-68
2023/05/17 10:38:40;;;;;;;8.63;1.35;;;21.00;99.90;25.40;102670.00;;;;5049093;28;20182;-68
2023/05/17 10:41:07;;;;;;;0.52;0.38;;;21.90;99.90;23.40;102702.00;;;;5082098;28;20182;-68
2023/05/17 10:43:34;;;;;;;2.30;0.85;;;21.50;99.90;21.20;102717.00;;;;5028797;28;20213;-68
2023/05/17 10:46:02;;;;;;;3.95;0.70;;;20.10;99.90;22.30;102710.00;;;;5032853;28;20197;-68
2023/05/17 10:48:31;;;;;;;0.68;0.32;;;19.70;99.90;23.20;102693.00;;;;5041420;28;20213;-68
2023/05/17 10:51:06;;;;;;;1.65;0.77;;;20.10;99.90;22.50;102704.00;;;;5028068;28;20228;-68
2023/05/17 10:54:11;;;;;;;0.43;0.43;;;20.30;99.90;22.60;102703.00;;;;5031366;28;20691;-69
2023/05/17 10:56:54;;;;;;;0.10;0.10;;;20.30;99.90;23.20;102689.00;;;;5042940;28;20179;-67
2023/05/17 10:59:23;;;;;;;1.65;1.08;;;20.10;99.90;21.40;102711.00;;;;5031462;28;20178;-69
2023/05/17 11:02:09;;;;;;;0.20;0.20;;;19.60;99.90;23.20;102678.00;;;;5030752;28;20194;-73
2023/05/17 11:05:22;;;;;;;0.30;0.30;;;20.10;99.90;24.30;102689.00;;;;5035979;28;20251;-69
2023/05/17 11:11:39;;;;;;;0.43;0.43;;;20.50;99.90;23.10;102704.00;;;;5038694;28;20747;-69
2023/05/17 11:14:38;;;;;;;4.57;0.63;;;20.40;99.90;23.00;102702.00;;;;5031703;28;20225;-68
2023/05/17 11:17:28;;;;;;;0.20;0.20;;;20.30;99.90;22.20;102701.00;;;;5061428;28;20219;-68
2023/05/17 11:19:57;;;;;;;7.88;1.05;;;19.70;99.90;21.10;102661.00;;;;5062386;28;20187;-68
2023/05/17 11:22:57;;;;;;;1.65;1.55;;;19.10;99.90;20.90;102714.00;;;;5048515;28;20732;-68
2023/05/17 11:25:39;;;;;;;0.50;0.45;;;19.20;99.90;21.80;102707.00;;;;5048264;28;20198;-68
2023/05/17 11:28:30;;;;;;;4.57;0.70;;;19.40;99.90;22.50;102670.00;;;;5047546;28;20189;-67
2023/05/17 11:31:00;;;;;;;0.10;0.10;;;20.20;99.90;21.90;102709.00;;;;5034024;28;20193;-68
2023/05/17 11:33:47;;;;;;;0.80;0.73;;;20.10;99.90;21.80;102708.00;;;;5038425;28;20282;-67
2023/05/17 11:36:23;;;;;;;0.38;0.38;;;20.00;99.90;22.10;102657.00;;;;5046330;28;20199;-68
2023/05/17 11:39:11;;;;;;;0.60;0.60;;;19.70;99.90;22.50;102705.00;;;;5073884;28;20252;-67
2023/05/17 11:42:14;;;;;;;1.60;0.60;;;20.50;99.90;21.70;102706.00;;;;5036851;28;20245;-67
2023/05/17 11:45:44;;;;;;;1.08;0.98;;;20.20;99.90;21.80;102714.00;;;;5024113;28;20232;-71
2023/05/17 11:48:14;;;;;;;0.80;0.65;;;20.00;99.90;21.60;102711.00;;;;5025770;28;20182;-76
2023/05/17 11:51:10;;;;;;;0.22;0.22;;;19.40;99.90;21.50;102690.00;;;;5033700;28;20183;-67
2023/05/17 11:54:14;;;;;;;0.20;0.20;;;19.20;99.90;21.40;102700.00;;;;5017702;28;20178;-67
2023/05/17 11:56:48;;;;;;;0.28;0.20;;;19.20;99.90;22.10;102696.00;;;;5010743;28;20191;-68
2023/05/17 11:59:41;;;;;;;2.83;1.80;;;19.20;99.90;21.20;102713.00;;;;5031234;28;20250;-68
2023/05/17 12:02:08;;;;;;;0.65;0.65;;;19.10;99.90;21.60;102712.00;;;;5021249;28;20194;-68
2023/05/17 12:04:45;;;;;;;0.77;0.63;;;19.00;99.90;20.20;102716.00;;;;5064921;28;20232;-67
2023/05/17 12:07:11;;;;;;;1.90;1.80;;;18.50;99.90;19.80;102716.00;;;;5009390;28;20217;-67
2023/05/17 12:09:44;;;;;;;1.10;0.87;;;18.10;99.90;20.70;102694.00;;;;5041461;28;20191;-67
2023/05/17 12:12:14;;;;;;;0.43;0.43;;;18.00;99.90;21.20;102702.00;;;;5032425;28;21065;-68
2023/05/17 12:14:54;;;;;;;0.20;0.20;;;18.50;99.90;20.50;102700.00;;;;5032866;28;20203;-67
2023/05/17 12:17:36;;;;;;;1.55;0.93;;;18.50;99.90;22.50;102689.00;;;;5032093;28;20186;-68
2023/05/17 12:20:12;;;;;;;1.85;0.50;;;19.10;99.90;22.50;102693.00;;;;5006581;28;20214;-68
2023/05/17 12:22:56;;;;;;;1.27;0.50;;;19.70;99.90;21.70;102697.00;;;;5032487;28;20194;-68
2023/05/17 12:25:37;;;;;;;1.00;0.60;;;19.30;99.90;21.40;102696.00;;;;5033280;28;20187;-68
2023/05/17 12:28:21;;;;;;;1.65;0.20;;;19.00;99.90;21.60;102691.00;;;;5032078;28;20186;-68
2023/05/17 12:30:57;;;;;;;0.30;0.30;;;18.70;99.90;21.90;102695.00;;;;5033517;28;20177;-68
2023/05/17 12:33:43;;;;;;;0.20;0.20;;;18.80;99.90;21.30;102696.00;;;;5041623;28;20193;-68
2023/05/17 12:36:14;;;;;;;0.20;0.20;;;18.70;99.90;21.80;102683.00;;;;5032023;28;20179;-68
2023/05/17 12:38:42;;;;;;;2.00;0.40;;;18.60;99.90;21.80;102690.00;;;;5016885;28;20186;-68
2023/05/17 12:41:13;;;;;;;0.40;0.40;;;18.90;99.90;21.60;102683.00;;;;5012666;28;20190;-67
2023/05/17 12:43:44;;;;;;;2.40;0.40;;;18.80;99.90;21.20;102691.00;;;;5064576;28;20213;-68
2023/05/17 12:46:17;;;;;;;0.63;0.30;;;18.70;99.90;21.60;102693.00;;;;5033853;28;20202;-68
2023/05/17 12:48:44;;;;;;;1.80;0.90;;;18.70;99.90;20.50;102700.00;;;;5032295;28;20179;-68
2023/05/17 12:51:16;;;;;;;1.60;1.50;;;18.50;99.90;20.90;102639.00;;;;5016390;28;20210;-68
2023/05/17 12:53:59;;;;;;;1.00;0.80;;;18.20;99.90;20.90;102693.00;;;;5027502;28;20196;-68
2023/05/17 12:56:29;;;;;;;2.73;0.47;;;18.00;99.90;20.30;102693.00;;;;5012823;28;20596;-68
2023/05/17 12:59:13;;;;;;;0.20;0.20;;;18.10;99.90;20.80;102694.00;;;;5063827;28;20216;-68
2023/05/17 13:01:45;;;;;;;0.40;0.40;;;18.10;99.90;21.60;102694.00;;;;5030434;28;20185;-68
2023/05/17 13:04:13;;;;;;;0.30;0.30;;;18.30;99.90;21.60;102684.00;;;;5032492;28;20277;-68
2023/05/17 13:06:52;;;;;;;2.08;1.02;;;18.60;99.90;21.30;102701.00;;;;5032042;28;20182;-68
2023/05/17 13:09:22;;;;;;;3.23;0.77;;;18.50;99.90;20.10;102705.00;;;;5032044;28;20667;-68
2023/05/17 13:12:00;;;;;;;0.40;0.40;;;18.20;99.90;20.50;102706.00;;;;5033803;28;20700;-68
2023/05/17 13:14:39;;;;;;;1.10;1.10;;;17.90;99.90;20.70;102701.00;;;;5033150;28;20198;-68
2023/05/17 13:17:11;;;;;;;2.03;1.13;;;18.00;99.90;20.80;102699.00;;;;5032843;28;20660;-68
2023/05/17 13:19:38;;;;;;;1.40;0.52;;;18.20;99.90;20.70;102689.00;;;;5033025;28;20180;-67
2023/05/17 13:22:31;;;;;;;0.65;0.32;;;18.20;99.90;20.10;102696.00;;;;5032447;28;20194;-68
2023/05/17 13:25:05;;;;;;;1.48;0.82;;;17.60;99.90;19.80;102697.00;;;;5032800;28;20219;-68
2023/05/17 13:28:01;;;;;;;0.50;0.50;;;17.70;99.90;20.70;102691.00;;;;5015178;28;20190;-68
2023/05/17 13:30:50;;;;;;;0.27;0.27;;;17.90;99.90;21.20;102669.00;;;;5031086;28;20219;-68
2023/05/17 13:33:19;;;;;;;0.40;0.40;;;18.10;99.90;21.00;102671.00;;;;5032411;28;20213;-68
2023/05/17 13:35:47;;;;;;;0.10;0.10;;;18.20;99.90;21.60;102665.00;;;;5033215;28;20692;-68
2023/05/17 13:38:16;;;;;;;0.88;0.82;;;18.40;99.90;20.40;102684.00;;;;5031898;28;20657;-68
2023/05/17 13:41:00;;;;;;;0.40;0.40;;;18.20;99.90;21.70;102678.00;;;;5032636;28;20268;-68
2023/05/17 13:43:31;;;;;;;3.13;0.53;;;18.30;99.90;21.00;102673.00;;;;5030574;28;20194;-68
2023/05/17 13:46:02;;;;;;;0.20;0.20;;;18.60;99.90;20.80;102688.00;;;;5016115;28;20583;-68
2023/05/17 13:48:31;;;;;;;1.80;0.77;;;18.20;99.90;19.60;102689.00;;;;5021906;28;20276;-68
2023/05/17 13:51:02;;;;;;;0.57;0.50;;;17.80;99.90;20.10;102685.00;;;;5032230;28;20192;-68
2023/05/17 13:53:30;;;;;;;0.53;0.30;;;17.60;99.90;20.30;102683.00;;;;5031359;28;20595;-68
2023/05/17 13:56:01;;;;;;;1.70;0.93;;;17.70;99.90;20.70;102685.00;;;;5029053;28;20272;-68
2023/05/17 13:58:27;;;;;;;1.63;0.83;;;17.90;99.90;20.30;102682.00;;;;5041691;28;20687;-68
2023/05/17 14:00:56;;;;;;;0.10;0.10;;;17.90;99.90;20.60;102669.00;;;;5032053;28;20197;-68
2023/05/17 14:03:27;;;;;;;0.20;0.20;;;17.80;99.90;20.80;102654.00;;;;5031053;28;20199;-68
2023/05/17 14:06:03;;;;;;;5.60;0.63;;;17.80;99.90;20.50;102681.00;;;;5015556;28;20339;-68
2023/05/17 14:08:34;;;;;;;0.10;0.10;;;17.80;99.90;20.20;102671.00;;;;5032065;28;20192;-68
2023/05/17 14:11:09;;;;;;;0.33;0.33;;;17.70;99.90;19.50;102683.00;;;;5030824;28;20213;-68
2023/05/17 14:13:40;;;;;;;0.60;0.60;;;17.30;99.90;19.90;102686.00;;;;5028525;28;20193;-68
2023/05/17 14:16:11;;;;;;;2.37;0.63;;;17.30;99.90;19.80;102687.00;;;;5024901;28;20262;-68
2023/05/17 14:18:37;;;;;;;0.83;0.70;;;17.30;99.90;19.40;102708.00;;;;5031519;28;20282;-68
2023/05/17 14:21:09;;;;;;;0.33;0.33;;;17.10;99.90;20.70;102662.00;;;;5015208;28;20284;-68
2023/05/17 14:23:35;;;;;;;0.20;0.20;;;17.20;99.90;20.70;102624.00;;;;5030985;28;20189;-68
2023/05/17 14:26:11;;;;;;;0.70;0.70;;;17.60;99.90;20.10;102681.00;;;;5015501;28;20238;-68
2023/05/17 14:28:40;;;;;;;0.43;0.40;;;17.60;99.90;19.50;102691.00;;;;5031658;28;20261;-68
2023/05/17 14:31:07;;;;;;;0.30;0.30;;;17.20;99.90;19.20;102695.00;;;;5016958;28;20181;-68
2023/05/17 14:33:37;;;;;;;0.50;0.50;;;16.90;99.90;18.90;102696.00;;;;5025969;28;20233;-68
2023/05/17 14:36:06;;;;;;;0.43;0.30;;;16.70;99.90;19.80;102692.00;;;;5032013;28;20192;-68
2023/05/17 14:38:45;;;;;;;0.23;0.23;;;16.90;99.90;20.00;102690.00;;;;5029237;28;20190;-68
2023/05/17 14:41:14;;;;;;;0.47;0.47;;;17.20;99.90;19.50;102695.00;;;;5023637;28;20226;-69
2023/05/17 14:43:40;;;;;;;0.33;0.33;;;17.00;99.90;19.30;102700.00;;;;5040505;28;20651;-70
2023/05/17 14:46:10;;;;;;;9.43;0.80;;;16.90;99.90;19.20;102710.00;;;;5016137;28;20190;-69
2023/05/17 14:48:39;;;;;;;0.90;0.30;;;17.00;99.90;20.00;102695.00;;;;5037591;28;20193;-69
2023/05/17 14:51:45;;;;;;;0.20;0.20;;;17.10;99.90;20.00;102689.00;;;;5023377;28;20190;-69
2023/05/17 14:54:31;;;;;;;0.57;0.43;;;17.30;99.90;20.20;102688.00;;;;5039227;28;20237;-69
2023/05/17 14:57:03;;;;;;;0.33;0.33;;;17.20;99.90;20.10;102689.00;;;;5057017;28;20190;-70
2023/05/17 14:59:30;;;;;;;0.10;0.10;;;17.20;99.90;20.20;102675.00;;;;5036291;28;20183;-69
2023/05/17 15:01:56;;;;;;;0.10;0.10;;;17.40;99.90;20.50;102675.00;;;;5036965;28;20188;-69
2023/05/17 15:04:24;;;;;;;0.50;0.47;;;17.30;99.90;19.70;102689.00;;;;5040780;28;20188;-69
2023/05/17 15:06:51;;;;;;;0.10;0.10;;;17.20;99.90;20.10;102625.00;;;;5039933;28;20196;-69
2023/05/17 15:09:22;;;;;;;0.20;0.20;;;17.30;99.90;19.60;102681.00;;;;5038893;28;20567;-69
2023/05/17 15:11:49;;;;;;;0.10;0.10;;;17.20;99.90;20.40;102678.00;;;;5023634;28;20207;-69
2023/05/17 15:14:20;;;;;;;0.67;0.43;;;17.30;99.90;20.40;102684.00;;;;5040107;28;20205;-69
2023/05/17 15:16:47;;;;;;;0.10;0.10;;;17.50;99.90;20.00;102647.00;;;;5021099;28;20225;-69
2023/05/17 15:19:16;;;;;;;0.10;0.10;;;17.30;99.90;20.00;102674.00;;;;5032190;28;20286;-69
2023/05/17 15:21:43;;;;;;;0.30;0.30;;;17.30;99.90;19.80;102686.00;;;;5035468;28;20196;-69
2023/05/17 15:24:11;;;;;;;0.67;0.40;;;17.20;99.90;19.40;102669.00;;;;5035129;28;20200;-69
2023/05/17 15:26:37;;;;;;;0.43;0.37;;;16.90;99.90;19.30;102694.00;;;;5016975;28;20192;-69
2023/05/17 15:29:03;;;;;;;0.10;0.10;;;16.90;99.90;19.50;102671.00;;;;5064710;28;20193;-69
2023/05/17 15:31:29;;;;;;;1.40;0.97;;;16.90;99.90;20.10;102634.00;;;;5025929;28;20245;-69
2023/05/17 15:33:57;;;;;;;1.90;0.83;;;17.20;99.90;20.10;102680.00;;;;5034161;28;20198;-69
2023/05/17 15:36:26;;;;;;;0.80;0.80;;;17.30;99.90;20.00;102666.00;;;;5018535;28;20553;-69
2023/05/17 15:38:57;;;;;;;0.40;0.40;;;17.20;99.90;19.80;102688.00;;;;5035607;28;20328;-68
2023/05/17 15:41:26;;;;;;;0.23;0.23;;;17.00;99.90;20.30;102669.00;;;;5017836;28;20190;-69
2023/05/17 15:43:53;;;;;;;0.80;0.33;;;17.20;99.90;19.30;102680.00;;;;5031335;28;20199;-69
2023/05/17 15:46:19;;;;;;;1.03;0.27;;;16.90;99.90;19.90;102677.00;;;;5061654;28;20190;-69
2023/05/17 15:48:45;;;;;;;4.23;0.73;;;16.70;99.90;20.00;102682.00;;;;5035930;28;20599;-69
2023/05/17 15:51:11;;;;;;;0.30;0.30;;;16.90;99.90;19.60;102699.00;;;;5033090;28;20262;-69
2023/05/17 15:53:37;;;;;;;0.30;0.30;;;16.80;99.90;20.10;102686.00;;;;5034537;28;20327;-69
2023/05/17 15:56:08;;;;;;;1.07;0.57;;;16.90;99.90;20.10;102681.00;;;;5017133;28;20247;-69
2023/05/17 15:58:35;;;;;;;0.10;0.10;;;16.90;99.90;19.90;102688.00;;;;5034016;28;20519;-69
2023/05/17 16:01:05;;;;;;;0.10;0.10;;;16.90;99.90;19.70;102686.00;;;;5033277;28;20197;-69
2023/05/17 16:03:32;;;;;;;0.70;0.70;;;16.90;99.90;19.30;102700.00;;;;5020459;28;20195;-69
2023/05/17 16:05:58;;;;;;;0.60;0.60;;;16.70;99.90;19.10;102693.00;;;;5029684;28;20179;-69
2023/05/17 16:08:24;;;;;;;6.80;0.73;;;16.60;99.90;19.10;102691.00;;;;5034176;28;20189;-69
2023/05/17 16:11:08;;;;;;;0.10;0.10;;;16.40;99.90;19.10;102657.00;;;;5016985;28;20251;-69
2023/05/17 16:13:55;;;;;;;0.80;0.57;;;16.60;99.90;19.20;102685.00;;;;5021966;28;20276;-69
2023/05/17 16:16:24;;;;;;;0.10;0.10;;;16.60;99.90;19.90;102675.00;;;;5032686;28;20195;-69
2023/05/17 16:18:57;;;;;;;0.20;0.20;;;16.70;99.90;19.90;102681.00;;;;5034443;28;20186;-69
2023/05/17 16:21:41;;;;;;;0.30;0.30;;;16.90;99.90;19.90;102630.00;;;;5032516;28;20710;-69
2023/05/17 16:24:24;;;;;;;0.10;0.10;;;16.80;99.90;19.60;102641.00;;;;5033985;28;20186;-69
2023/05/17 16:26:52;;;;;;;0.27;0.27;;;16.80;99.90;19.70;102682.00;;;;5026116;28;20263;-69
2023/05/17 16:29:25;;;;;;;0.73;0.27;;;16.70;99.90;18.80;102698.00;;;;5034183;28;20671;-69
2023/05/17 16:31:54;;;;;;;0.10;0.10;;;16.50;99.90;19.10;102680.00;;;;5032351;28;20679;-69
2023/05/17 16:34:23;;;;;;;0.37;0.33;;;16.40;99.90;19.10;102631.00;;;;5033064;28;20194;-69
2023/05/17 16:37:07;;;;;;;1.23;1.13;;;16.40;99.90;19.20;102691.00;;;;5033518;28;20191;-69
2023/05/17 16:39:50;;;;;;;1.60;0.63;;;16.40;99.90;19.20;102682.00;;;;5033428;28;20184;-69
2023/05/17 16:42:27;;;;;;;1.37;1.27;;;16.40;99.90;18.40;102700.00;;;;5033509;28;20199;-69
2023/05/17 16:45:11;;;;;;;0.20;0.20;;;16.10;99.90;18.90;102696.00;;;;5033295;28;20177;-68
2023/05/17 16:47:57;;;;;;;0.10;0.10;;;16.00;99.90;18.70;102642.00;;;;5025992;28;20228;-68
2023/05/17 16:50:48;;;;;;;0.10;0.10;;;15.90;99.90;19.20;102660.00;;;;5038709;28;20204;-68
2023/05/17 16:53:32;;;;;;;0.93;0.63;;;16.20;99.90;18.60;102690.00;;;;5034447;28;20220;-68
2023/05/17 16:56:15;;;;;;;0.10;0.10;;;16.10;99.90;18.80;102691.00;;;;5030644;28;20256;-68
2023/05/17 16:58:41;;;;;;;0.50;0.50;;;15.90;99.90;18.30;102696.00;;;;5032893;28;20200;-69
2023/05/17 17:01:35;;;;;;;0.10;0.10;;;15.90;99.90;18.50;102693.00;;;;5033147;28;20186;-69
2023/05/17 17:04:02;;;;;;;0.50;0.50;;;15.80;99.90;18.50;102703.00;;;;5017115;28;20197;-69
2023/05/17 17:06:31;;;;;;;1.10;0.20;;;15.70;99.90;18.40;102704.00;;;;5029069;28;20729;-69
2023/05/17 17:09:20;;;;;;;0.10;0.10;;;15.80;99.90;19.10;102662.00;;;;5015093;28;20721;-69
2023/05/17 17:11:51;;;;;;;0.40;0.40;;;15.90;99.90;19.20;102699.00;;;;5009778;28;20692;-69
2023/05/17 17:14:25;;;;;;;3.83;1.17;;;16.10;99.90;18.60;102711.00;;;;5031699;28;20185;-69
2023/05/17 17:16:58;;;;;;;0.10;0.10;;;16.00;99.90;19.40;102702.00;;;;5016108;28;20203;-69
2023/05/17 17:19:24;;;;;;;0.70;0.70;;;16.10;99.90;19.10;102714.00;;;;5033052;28;20187;-69
2023/05/17 17:22:17;;;;;;;0.10;0.10;;;16.00;99.90;19.90;102709.00;;;;5015966;28;20730;-69
2023/05/17 17:25:13;;;;;;;0.20;0.20;;;16.10;99.90;18.80;102722.00;;;;5034034;28;20211;-69
2023/05/17 17:28:21;;;;;;;0.30;0.30;;;16.00;99.90;18.40;102724.00;;;;5056759;28;20519;-69
2023/05/17 17:31:21;;;;;;;0.20;0.20;;;15.60;99.90;18.50;102690.00;;;;5033602;28;20191;-69
2023/05/17 17:34:13;;;;;;;0.53;0.53;;;15.70;99.90;18.30;102698.00;;;;5031965;28;20338;-69
2023/05/17 17:37:14;;;;;;;0.30;0.30;;;15.50;99.90;18.30;102739.00;;;;5015974;28;20189;-69
2023/05/17 17:40:14;;;;;;;1.93;0.53;;;15.50;99.90;18.40;102732.00;;;;5032157;28;20195;-69
2023/05/17 17:43:06;;;;;;;2.67;0.50;;;15.40;99.90;17.90;102752.00;;;;5031706;28;20188;-69
2023/05/17 17:45:37;;;;;;;0.20;0.20;;;15.20;99.90;18.40;102732.00;;;;5020956;28;20183;-69
2023/05/17 17:48:12;;;;;;;0.10;0.10;;;15.20;99.90;18.80;102737.00;;;;5033692;28;20194;-69
2023/05/17 17:50:38;;;;;;;0.10;0.10;;;15.30;99.90;18.30;102732.00;;;;5032167;28;20188;-69
2023/05/17 17:53:04;;;;;;;0.30;0.30;;;15.30;99.90;18.50;102743.00;;;;5028899;28;20196;-69
2023/05/17 17:55:37;;;;;;;0.30;0.30;;;15.40;99.90;17.60;102737.00;;;;5061111;28;20633;-69
2023/05/17 17:58:54;;;;;;;0.30;0.30;;;15.10;99.90;18.40;102702.00;;;;5025223;28;20250;-69
2023/05/17 18:01:21;;;;;;;0.23;0.23;;;15.10;99.90;18.30;102744.00;;;;4996216;28;20190;-69
2023/05/17 18:04:22;;;;;;;0.70;0.70;;;15.10;99.90;18.20;102744.00;;;;5031432;28;20184;-69
2023/05/17 18:07:31;;;;;;;0.10;0.10;;;15.00;99.90;18.20;102741.00;;;;5042760;28;20183;-68
2023/05/17 18:10:03;;;;;;;2.30;0.97;;;15.10;99.90;18.20;102750.00;;;;5031802;28;20178;-69
2023/05/17 18:12:50;;;;;;;0.20;0.20;;;15.10;99.90;18.00;102754.00;;;;5025423;28;20243;-69
2023/05/17 18:15:33;;;;;;;0.40;0.17;;;15.00;99.90;17.90;102752.00;;;;5041355;28;20198;-68
2023/05/17 18:18:26;;;;;;;0.30;0.30;;;14.80;99.90;18.30;102752.00;;;;5041193;28;20305;-68
2023/05/17 18:21:17;;;;;;;3.93;1.83;;;14.90;99.90;17.70;102766.00;;;;5039418;28;20271;-69
2023/05/17 18:24:28;;;;;;;0.20;0.20;;;14.80;99.90;18.20;102722.00;;;;5024092;28;20190;-68
2023/05/17 18:27:30;;;;;;;0.20;0.20;;;14.60;99.90;17.70;102738.00;;;;5041292;28;20219;-68
2023/05/17 18:29:58;;;;;;;0.33;0.33;;;14.80;99.90;18.40;102760.00;;;;5040752;28;20185;-69
2023/05/17 18:32:26;;;;;;;0.10;0.10;;;14.80;99.90;18.90;102733.00;;;;5040959;28;20376;-69
2023/05/17 18:35:12;;;;;;;1.00;0.33;;;15.00;99.90;18.00;102747.00;;;;5040179;28;20184;-68
2023/05/17 18:37:38;;;;;;;1.17;1.07;;;14.80;99.90;18.50;102714.00;;;;5040568;28;20186;-69
2023/05/17 18:40:13;;;;;;;6.10;0.40;;;14.80;99.90;17.90;102763.00;;;;5039724;28;20256;-68
2023/05/17 18:42:53;;;;;;;0.10;0.10;;;14.70;99.90;17.40;102754.00;;;;5040830;28;20334;-68
2023/05/17 18:45:22;;;;;;;0.10;0.10;;;14.40;99.90;17.90;102707.00;;;;5046869;28;20636;-68